createdAt,value
2022-09-30T00:02:12.247Z,53.73
2022-09-30T00:07:15.987Z,52.93
2022-09-30T00:12:18.286Z,51.93
2022-09-30T00:17:21.063Z,49.93
2022-09-30T00:22:23.423Z,46.97
2022-09-30T00:27:25.750Z,46.00
2022-09-30T00:32:28.079Z,47.07
2022-09-30T00:37:30.468Z,44.27
2022-09-30T00:42:32.863Z,42.87
2022-09-30T00:47:50.871Z,37.93
2022-09-30T00:53:00.081Z,39.10
2022-09-30T00:58:05.674Z,38.77
2022-09-30T01:03:08.209Z,37.43
2022-09-30T01:08:11.806Z,39.53
2022-09-30T01:13:15.307Z,38.97
2022-09-30T01:18:59.024Z,37.07
2022-09-30T01:24:10.394Z,36.80
2022-09-30T01:29:29.191Z,37.97
2022-09-30T01:34:54.538Z,36.60
2022-09-30T01:40:03.043Z,37.47
2022-09-30T01:45:23.828Z,42.30
2022-09-30T01:50:50.743Z,37.10
2022-09-30T01:56:00.054Z,38.47
2022-09-30T02:01:07.836Z,36.73
2022-09-30T02:06:15.774Z,38.60
2022-09-30T02:11:25.644Z,39.10
2022-09-30T02:16:50.011Z,38.30
2022-09-30T02:21:58.453Z,37.73
2022-09-30T02:27:03.085Z,36.93
2022-09-30T02:32:25.293Z,35.93
2022-09-30T02:37:33.062Z,69.30
2022-09-30T02:42:35.416Z,44.17
2022-09-30T02:48:03.490Z,36.20
2022-09-30T02:53:15.617Z,37.47
2022-09-30T02:58:26.095Z,36.23
2022-09-30T03:03:33.711Z,33.53
2022-09-30T03:08:36.442Z,36.20
2022-09-30T03:13:44.799Z,33.47
2022-09-30T03:19:12.089Z,34.67
2022-09-30T03:24:41.585Z,35.50
2022-09-30T03:29:53.560Z,35.63
2022-09-30T03:35:14.453Z,39.73
2022-09-30T03:40:39.828Z,37.27
2022-09-30T03:45:52.917Z,41.33
2022-09-30T03:50:56.526Z,43.77
2022-09-30T03:55:58.838Z,44.33
2022-09-30T04:01:01.307Z,43.07
2022-09-30T04:06:04.170Z,40.00
2022-09-30T04:11:06.487Z,39.40
2022-09-30T04:16:09.843Z,40.47
2022-09-30T04:21:14.056Z,44.00
2022-09-30T04:26:19.903Z,45.50
2022-09-30T04:31:22.321Z,49.60
2022-09-30T04:36:24.751Z,42.50
2022-09-30T04:41:27.161Z,46.90
2022-09-30T04:46:29.461Z,42.73
2022-09-30T04:51:32.112Z,39.90
2022-09-30T04:56:34.453Z,38.00
2022-09-30T05:01:36.965Z,39.83
2022-09-30T05:06:42.692Z,40.17
2022-09-30T05:11:45.031Z,38.73
2022-09-30T05:16:47.400Z,38.27
2022-09-30T05:21:49.816Z,38.90
2022-09-30T05:26:52.222Z,38.83
2022-09-30T05:31:54.696Z,37.97
2022-09-30T05:36:57.110Z,43.13
2022-09-30T05:41:59.673Z,39.33
2022-09-30T05:47:02.082Z,40.97
2022-09-30T05:52:05.360Z,43.97
2022-09-30T05:57:08.334Z,53.93
2022-09-30T06:02:11.300Z,50.63
2022-09-30T06:07:13.984Z,42.20
2022-09-30T06:12:16.614Z,41.67
2022-09-30T06:17:19.813Z,41.67
2022-09-30T06:22:22.630Z,42.63
2022-09-30T06:27:25.159Z,41.10
2022-09-30T06:32:27.500Z,41.70
2022-09-30T06:37:30.170Z,38.07
2022-09-30T06:42:32.502Z,40.63
2022-09-30T06:47:34.858Z,37.30
2022-09-30T06:52:37.297Z,39.00
2022-09-30T06:57:41.147Z,37.60
2022-09-30T07:02:43.877Z,36.00
2022-09-30T07:07:46.218Z,36.60
2022-09-30T07:12:54.804Z,36.97
2022-09-30T07:17:58.026Z,33.03
2022-09-30T07:23:00.369Z,32.17
2022-09-30T07:28:02.867Z,29.63
2022-09-30T07:33:05.249Z,30.53
2022-09-30T07:38:07.568Z,28.53
2022-09-30T07:43:09.904Z,31.67
2022-09-30T07:48:32.195Z,43.87
2022-09-30T07:53:37.200Z,28.23
2022-09-30T07:58:43.279Z,27.70
2022-09-30T08:03:45.706Z,25.17
2022-09-30T08:08:50.580Z,26.20
2022-09-30T08:13:54.149Z,24.63
2022-09-30T08:19:02.358Z,25.83
2022-09-30T08:24:04.967Z,29.20
2022-09-30T08:29:07.966Z,30.27
2022-09-30T08:34:10.599Z,26.73
2022-09-30T08:39:13.051Z,27.97
2022-09-30T08:44:27.275Z,27.43
2022-09-30T08:49:47.628Z,24.87
2022-09-30T08:54:53.308Z,25.53
2022-09-30T08:59:59.836Z,24.33
2022-09-30T09:05:05.197Z,21.37
2022-09-30T09:10:27.718Z,21.23
2022-09-30T09:15:32.923Z,19.20
2022-09-30T09:20:42.907Z,18.23
2022-09-30T09:25:49.514Z,20.13
2022-09-30T09:30:57.091Z,18.23
2022-09-30T09:36:15.810Z,20.80
2022-09-30T09:41:45.495Z,17.93
2022-09-30T09:53:22.534Z,17.73
2022-09-30T09:58:26.161Z,19.27
2022-09-30T10:03:28.843Z,18.60
2022-09-30T10:08:34.459Z,17.57
2022-09-30T10:13:45.420Z,12.80
2022-09-30T10:18:49.130Z,10.63
2022-09-30T10:23:52.338Z,9.83
2022-09-30T10:29:01.575Z,9.90
2022-09-30T10:34:25.872Z,10.90
2022-09-30T10:39:35.349Z,11.07
2022-09-30T10:44:46.005Z,10.63
2022-09-30T10:50:00.257Z,12.77
2022-09-30T10:55:15.768Z,14.67
2022-09-30T11:00:22.874Z,15.63
2022-09-30T11:05:34.198Z,14.23
2022-09-30T11:10:53.885Z,15.17
2022-09-30T11:16:08.667Z,16.30
2022-09-30T11:21:35.163Z,15.00
2022-09-30T11:27:04.839Z,13.97
2022-09-30T11:32:07.174Z,12.70
2022-09-30T11:37:43.409Z,12.47
2022-09-30T11:42:55.858Z,11.63
2022-09-30T11:48:03.798Z,10.93
2022-09-30T11:53:15.561Z,12.30
2022-09-30T11:58:40.567Z,13.30
2022-09-30T12:03:54.306Z,10.00
2022-09-30T12:09:15.463Z,10.70
2022-09-30T12:14:40.871Z,12.80
2022-09-30T12:19:49.869Z,12.73
2022-09-30T12:24:52.185Z,12.47
2022-09-30T12:30:22.776Z,13.53
2022-09-30T12:35:51.032Z,13.47
2022-09-30T12:41:01.287Z,11.97
2022-09-30T12:46:22.441Z,12.80
2022-09-30T12:51:31.871Z,13.57
2022-09-30T12:56:36.958Z,14.87
2022-09-30T13:01:42.148Z,12.60
2022-09-30T13:06:47.476Z,15.60
2022-09-30T13:11:56.033Z,37.90
2022-09-30T13:17:07.645Z,13.23
2022-09-30T13:22:24.064Z,12.10
2022-09-30T13:27:48.654Z,11.30
2022-09-30T13:32:58.170Z,17.13
2022-09-30T13:38:12.814Z,14.83
2022-09-30T13:43:22.418Z,12.53
2022-09-30T13:48:35.368Z,13.70
2022-09-30T13:53:40.507Z,13.60
2022-09-30T13:58:54.914Z,11.13
2022-09-30T14:04:12.486Z,12.30
2022-09-30T14:09:42.402Z,11.90
2022-09-30T14:15:02.371Z,11.90
2022-09-30T14:20:41.181Z,14.27
2022-09-30T14:26:13.176Z,13.20
2022-09-30T14:31:15.919Z,15.80
2022-09-30T14:36:22.490Z,21.67
2022-09-30T14:41:26.174Z,16.03
2022-09-30T14:46:31.340Z,13.00
2022-09-30T14:51:44.713Z,13.73
2022-09-30T14:56:48.276Z,15.53
2022-09-30T15:01:55.527Z,15.00
2022-09-30T15:07:00.443Z,13.67
2022-09-30T15:12:23.588Z,19.30
2022-09-30T15:17:38.621Z,16.93
2022-09-30T15:22:41.831Z,16.27
2022-09-30T15:27:45.303Z,13.97
2022-09-30T15:32:50.368Z,15.87
2022-09-30T15:37:54.869Z,17.53
2022-09-30T15:43:01.343Z,25.47
2022-09-30T15:48:16.902Z,49.07
2022-09-30T15:53:25.633Z,50.33
2022-09-30T15:58:41.458Z,53.03
2022-09-30T16:03:54.824Z,47.93
2022-09-30T16:09:04.301Z,48.00
2022-09-30T16:14:11.440Z,41.97
2022-09-30T16:19:18.031Z,40.67
2022-09-30T16:24:23.422Z,59.73
2022-09-30T16:29:27.189Z,71.17
2022-09-30T16:34:31.193Z,56.70
2022-09-30T16:39:33.719Z,48.00
2022-09-30T16:44:36.490Z,41.47
2022-09-30T16:49:38.923Z,30.07
2022-09-30T16:54:42.797Z,34.17
2022-09-30T16:59:45.245Z,35.37
2022-09-30T17:04:47.594Z,44.37
2022-09-30T17:09:50.011Z,46.43
2022-09-30T17:14:52.594Z,49.20
2022-09-30T17:19:54.963Z,48.30
2022-09-30T17:24:57.390Z,48.87
2022-09-30T17:30:01.324Z,47.83
2022-09-30T17:35:08.059Z,60.13
2022-09-30T17:40:29.640Z,48.03
2022-09-30T17:45:32.066Z,49.67
2022-09-30T17:50:44.974Z,51.57
2022-09-30T17:55:50.234Z,58.27
2022-09-30T18:00:52.617Z,66.53
2022-09-30T18:05:58.900Z,79.33
2022-09-30T18:11:01.310Z,113.63
2022-09-30T18:16:07.168Z,172.63
2022-09-30T18:21:12.089Z,80.00
2022-09-30T18:26:14.648Z,149.57
2022-09-30T18:31:27.080Z,136.77
2022-09-30T18:36:29.887Z,138.90
2022-09-30T18:41:35.558Z,122.03
2022-09-30T18:46:38.501Z,100.67
2022-09-30T18:51:40.869Z,95.80
2022-09-30T18:56:44.358Z,86.37
2022-09-30T19:01:47.448Z,85.10
2022-09-30T19:06:50.112Z,83.37
2022-09-30T19:11:55.802Z,76.07
2022-09-30T19:16:58.465Z,148.43
2022-09-30T19:22:02.955Z,98.67
2022-09-30T19:27:06.181Z,60.03
2022-09-30T19:32:09.858Z,66.70
2022-09-30T19:37:24.583Z,118.33
2022-09-30T19:42:30.014Z,83.63
2022-09-30T19:47:34.441Z,97.23
2022-09-30T19:52:42.972Z,103.27
2022-09-30T19:57:47.761Z,98.97
2022-09-30T20:02:50.746Z,108.90
2022-09-30T20:07:53.202Z,90.73
2022-09-30T20:12:55.558Z,97.27
2022-09-30T20:17:57.901Z,94.43
2022-09-30T20:23:01.265Z,94.93
2022-09-30T20:28:05.176Z,97.10
2022-09-30T20:33:10.684Z,108.33
2022-09-30T20:38:24.304Z,81.60
2022-09-30T20:43:30.602Z,77.80
2022-09-30T20:48:38.107Z,72.47
2022-09-30T20:53:42.733Z,70.87
2022-09-30T20:58:49.302Z,70.13
2022-09-30T21:03:53.562Z,65.73
2022-09-30T21:09:02.798Z,69.60
2022-09-30T21:14:05.188Z,68.67
2022-09-30T21:19:07.538Z,66.00
2022-09-30T21:24:14.489Z,72.20
2022-09-30T21:29:17.161Z,69.50
2022-09-30T21:34:19.530Z,63.37
2022-09-30T21:39:21.907Z,64.83
2022-09-30T21:44:26.126Z,63.93
2022-09-30T21:49:28.721Z,59.90
2022-09-30T21:54:31.138Z,60.47
2022-09-30T21:59:38.187Z,58.37
2022-09-30T22:04:41.077Z,57.67
2022-09-30T22:09:43.514Z,58.60
2022-09-30T22:14:45.830Z,55.63
2022-09-30T22:19:48.254Z,55.40
2022-09-30T22:24:50.562Z,56.03
2022-09-30T22:29:52.996Z,55.73
2022-09-30T22:35:13.759Z,54.17
2022-09-30T22:40:16.227Z,54.80
2022-09-30T22:45:19.342Z,57.87
2022-09-30T22:50:21.710Z,53.57
2022-09-30T22:55:24.201Z,55.63
2022-09-30T23:00:26.584Z,54.93
2022-09-30T23:05:29.112Z,56.27
2022-09-30T23:10:31.550Z,59.23
2022-09-30T23:15:33.952Z,53.63
2022-09-30T23:20:36.655Z,52.40
2022-09-30T23:25:39.053Z,52.73
2022-09-30T23:30:41.392Z,49.43
2022-09-30T23:35:48.150Z,48.27
2022-09-30T23:40:50.999Z,45.40
2022-09-30T23:45:53.629Z,42.43
2022-09-30T23:50:56.014Z,40.27
2022-09-30T23:56:04.685Z,36.60
